Club Med II — FNIR — position and weather

sailwx.info

Track history (hours):
 
Tides and Currents Weather Stations Pressure Air Temp Water Temp Dewpoint Dewpoint Depression Visibility Wind Speed Wind Dir Waves Ship Positions

Club Med II

Operator: V.Ships Leisure S.A.M

Last reported at 2018-Jun-22 05:17 UTC. Time now 2018-Jun-22 09:05 UTC.
Position N 43°24' E 006°58'.

Length 187 m; draft 5.3 m.

Type: Ship. MMSI: 227194000.

Date/timePositionNaut miles runAvg speedWind from/ knotsBaromVisibWave heightAir tempDewpointWater temp
2018-Jun-22 05:17N 43°24' E 006°58'412.3
2018-Jun-22 05:00N 43°26' E 007°02'612.6
2018-Jun-22 04:30N 43°29' E 007°10'612.6
2018-Jun-22 04:00N 43°32' E 007°17'712.7
2018-Jun-22 03:28N 43°35' E 007°26'3714.1
2018-Jun-22 00:50N 43°51' E 008°12'614.0
2018-Jun-22 00:24N 43°54' E 008°19'613.6
2018-Jun-21 23:59N 43°57' E 008°25'713.6
2018-Jun-21 23:30N 44°00' E 008°34'713.6
2018-Jun-21 23:00N 44°03' E 008°42'713.6
2018-Jun-21 22:30N 44°06' E 008°50'714.0
2018-Jun-21 22:00N 44°10' E 008°59'714.1
2018-Jun-21 21:30N 44°13' E 009°08'713.3
2018-Jun-21 21:00N 44°16' E 009°16'2 4.4
2018-Jun-21 20:30N 44°18' E 009°14'0 0.0
2018-Jun-21 19:59N 44°18' E 009°14'0 0.0
2018-Jun-21 19:23N 44°18' E 009°14'0 0.0
2018-Jun-21 18:53N 44°18' E 009°14'0 0.0
2018-Jun-21 18:29N 44°18' E 009°14'0 0.0
2018-Jun-21 17:59N 44°18' E 009°14'0 0.0
2018-Jun-21 17:23N 44°18' E 009°14'0 0.0
2018-Jun-21 16:59N 44°18' E 009°14'0 0.0
2018-Jun-21 16:26N 44°18' E 009°14'0 0.0
2018-Jun-21 15:35N 44°18' E 009°14'0 0.1
2018-Jun-21 15:29N 44°18' E 009°14'0 0.0
2018-Jun-21 14:59N 44°18' E 009°14'0 0.0
2018-Jun-21 14:29N 44°18' E 009°14'0 0.0
2018-Jun-21 13:56N 44°18' E 009°14'0 0.0
2018-Jun-21 13:29N 44°18' E 009°14'0 0.0
2018-Jun-21 12:59N 44°18' E 009°14'0 0.0
2018-Jun-21 12:29N 44°18' E 009°14'0 0.0
2018-Jun-21 11:59N 44°18' E 009°14'0 0.0
2018-Jun-21 11:29N 44°18' E 009°14'0 0.0
2018-Jun-21 10:53N 44°18' E 009°14'0 0.0
2018-Jun-21 10:23N 44°18' E 009°14'0 0.0
2018-Jun-21 09:59N 44°18' E 009°14'0 0.0
2018-Jun-21 09:29N 44°18' E 009°14'0 0.0
2018-Jun-21 08:59N 44°18' E 009°14'0 0.0
2018-Jun-21 08:29N 44°18' E 009°14'0 0.1
2018-Jun-21 07:56N 44°18' E 009°14'0 0.0
2018-Jun-21 07:11N 44°18' E 009°14'0 0.0
2018-Jun-21 06:48N 44°18' E 009°14'0 0.0
2018-Jun-21 06:30N 44°18' E 009°14'0 0.0
2018-Jun-21 06:01N 44°18' E 009°14'0 0.2
2018-Jun-21 05:30N 44°18' E 009°14'4 7.4
2018-Jun-21 05:00N 44°15' E 009°17'4 8.3
2018-Jun-21 04:30N 44°11' E 009°16'4 8.4
2018-Jun-21 04:01N 44°07' E 009°16'4 8.3
2018-Jun-21 03:31N 44°03' E 009°15'4 7.9
2018-Jun-21 03:01N 43°59' E 009°14'4 7.8
2018-Jun-21 02:30N 43°55' E 009°13'4 8.0
2018-Jun-21 02:00N 43°51' E 009°12'5 9.1
2018-Jun-21 01:30N 43°46' E 009°11'5 9.4
2018-Jun-21 01:01N 43°42' E 009°10'5 9.6
2018-Jun-21 00:31N 43°37' E 009°08'5 9.6
2018-Jun-21 00:01N 43°33' E 009°07'5 9.6
2018-Jun-20 23:31N 43°28' E 009°05'5 9.6
2018-Jun-20 23:01N 43°23' E 009°03'5 9.5
2018-Jun-20 22:31N 43°19' E 009°01'5 9.3
2018-Jun-20 22:00N 43°14' E 008°59'5 9.0
2018-Jun-20 21:29N 43°10' E 008°58'37 4.4
2018-Jun-20 13:12N 42°34' E 008°46'0 0.0
2018-Jun-20 12:39N 42°34' E 008°46'0 0.0
2018-Jun-20 12:15N 42°34' E 008°46'0 0.0
2018-Jun-20 12:00N 42°34' E 008°46'0 0.0
2018-Jun-20 09:42N 42°34' E 008°46'0 0.0
2018-Jun-20 09:09N 42°34' E 008°46'0 0.1
2018-Jun-20 09:00N 42°34' E 008°46'0 0.0
2018-Jun-20 08:30N 42°34' E 008°46'0 0.0
2018-Jun-20 07:51N 42°34' E 008°46'0 0.0
2018-Jun-20 06:45N 42°34' E 008°46'0 0.0
2018-Jun-20 06:30N 42°34' E 008°46'0 0.1
2018-Jun-20 06:00N 42°34' E 008°46'1 1.4
2018-Jun-20 05:30N 42°35' E 008°46'3 6.6
2018-Jun-20 05:00N 42°37' E 008°43'4 7.6
2018-Jun-20 04:26N 42°40' E 008°38'3 8.2
2018-Jun-20 04:00N 42°42' E 008°34'9 6.7
2018-Jun-20 02:38N 42°49' E 008°26'1 6.9
2018-Jun-20 02:30N 42°49' E 008°25'4 7.2
2018-Jun-20 01:59N 42°52' E 008°22'6 8.1
2018-Jun-20 01:13N 42°57' E 008°16'2 8.3
2018-Jun-20 01:00N 42°58' E 008°14'4 8.6
2018-Jun-20 00:30N 43°01' E 008°10'6 8.0
2018-Jun-19 23:42N 43°06' E 008°04'2 8.1
2018-Jun-19 23:30N 43°07' E 008°02'16 8.2
2018-Jun-19 21:37N 43°18' E 007°48'6 8.7
2018-Jun-19 20:57N 43°22' E 007°42'4 8.6
2018-Jun-19 20:27N 43°25' E 007°37'4 8.4
2018-Jun-19 19:58N 43°28' E 007°33'4 8.1
2018-Jun-19 19:29N 43°30' E 007°30'4 8.2
2018-Jun-19 18:57N 43°34' E 007°26'4 8.4
2018-Jun-19 18:27N 43°37' E 007°22'4 8.2
2018-Jun-19 18:00N 43°39' E 007°18'2 0.1
2018-Jun-19 04:24N 43°40' E 007°17'4 9.4
2018-Jun-19 04:00N 43°37' E 007°14'4 8.6
2018-Jun-19 03:29N 43°33' E 007°11'4 8.7
2018-Jun-19 03:00N 43°30' E 007°08'5 9.5
2018-Jun-19 02:30N 43°26' E 007°05'5 9.6
2018-Jun-19 02:00N 43°21' E 007°01'5 9.5
2018-Jun-19 01:27N 43°17' E 006°58'37 2.6
2018-Jun-18 11:08N 43°01' E 006°12'0 1.2
2018-Jun-18 11:01N 43°01' E 006°12'18311.9
2018-Jun-17 19:42N 41°25' E 002°42'413.9
2018-Jun-17 19:26N 41°24' E 002°37'614.2
2018-Jun-17 19:00N 41°22' E 002°29'714.6
2018-Jun-17 18:29N 41°21' E 002°19'612.7
2018-Jun-17 18:00N 41°21' E 002°11'2 2.1
2018-Jun-17 17:14N 41°22' E 002°11'0 0.0
2018-Jun-17 16:44N 41°22' E 002°11'0 0.0
2018-Jun-17 16:20N 41°22' E 002°11'0 0.0
2018-Jun-17 13:20N 41°22' E 002°11'0 0.0
2018-Jun-17 12:56N 41°22' E 002°11'0 0.0
2018-Jun-17 12:26N 41°22' E 002°11'0 0.0
2018-Jun-17 11:56N 41°22' E 002°11'0 0.0
2018-Jun-17 11:26N 41°22' E 002°11'0 0.0
2018-Jun-17 10:50N 41°22' E 002°11'0 0.0
2018-Jun-17 10:20N 41°22' E 002°11'0 0.0
2018-Jun-17 09:56N 41°22' E 002°11'0 0.0
2018-Jun-17 09:25N 41°22' E 002°11'0 0.6
2018-Jun-17 09:00N 41°22' E 002°11'3 6.2
2018-Jun-17 08:30N 41°20' E 002°14'5 9.3
2018-Jun-17 08:00N 41°16' E 002°18'5 9.3
2018-Jun-17 07:29N 41°13' E 002°22'50 9.2
2018-Jun-17 02:01N 40°35' E 003°06'2 9.6
2018-Jun-17 01:47N 40°33' E 003°08'6 9.7
2018-Jun-17 01:08N 40°28' E 003°13'410.1
2018-Jun-17 00:45N 40°25' E 003°16'198 6.6
2018-Jun-15 18:43N 42°51' E 006°14'1613.2
2018-Jun-15 17:32N 42°55' E 006°35'114.4
2018-Jun-15 17:29N 42°55' E 006°35'714.3
2018-Jun-15 17:00N 43°00' E 006°42'714.1
2018-Jun-15 16:30N 43°06' E 006°48'714.4
2018-Jun-15 16:01N 43°11' E 006°54'714.1
2018-Jun-15 15:30N 43°17' E 007°00'713.9
2018-Jun-15 15:00N 43°22' E 007°06'714.0
2018-Jun-15 14:30N 43°28' E 007°12'713.8
2018-Jun-15 14:00N 43°34' E 007°17'713.9
2018-Jun-15 13:31N 43°40' E 007°17'1 0.1
2018-Jun-15 05:07N 43°42' E 007°17'0 0.0
2018-Jun-15 05:01N 43°42' E 007°17'0 0.7
2018-Jun-15 04:29N 43°41' E 007°17'6 8.1
2018-Jun-15 03:47N 43°40' E 007°25'410.7
2018-Jun-15 03:27N 43°40' E 007°30'1912.0
2018-Jun-15 01:53N 43°40' E 007°56'512.5
2018-Jun-15 01:30N 43°40' E 008°02'611.9
2018-Jun-15 01:01N 43°40' E 008°10'612.5
2018-Jun-15 00:31N 43°44' E 008°17'612.4
2018-Jun-15 00:01N 43°48' E 008°24'612.5
2018-Jun-14 23:31N 43°51' E 008°31'612.4
2018-Jun-14 23:01N 43°55' E 008°38'612.5
2018-Jun-14 22:30N 43°59' E 008°45'612.7
2018-Jun-14 22:00N 44°03' E 008°52'612.7
2018-Jun-14 21:31N 44°06' E 008°59'612.7
2018-Jun-14 21:01N 44°10' E 009°06'612.5
2018-Jun-14 20:31N 44°14' E 009°13'4 7.7
2018-Jun-14 20:01N 44°18' E 009°14'0 0.1
2018-Jun-14 19:24N 44°18' E 009°14'0 0.0
2018-Jun-14 19:00N 44°18' E 009°14'0 0.0
2018-Jun-14 18:30N 44°18' E 009°14'0 0.0
2018-Jun-14 18:00N 44°18' E 009°14'0 0.0
2018-Jun-14 17:30N 44°18' E 009°14'0 0.0
2018-Jun-14 17:00N 44°18' E 009°14'0 0.0
2018-Jun-14 16:30N 44°18' E 009°14'0 0.0
2018-Jun-14 16:00N 44°18' E 009°14'0 0.0
2018-Jun-14 15:30N 44°18' E 009°14'0 0.0
2018-Jun-14 14:57N 44°18' E 009°14'0 0.0
2018-Jun-14 14:30N 44°18' E 009°14'0 0.0
2018-Jun-14 14:00N 44°18' E 009°14'0 0.0
2018-Jun-14 13:30N 44°18' E 009°14'0 0.0
2018-Jun-14 13:00N 44°18' E 009°14'0 0.0
2018-Jun-14 12:30N 44°18' E 009°14'0 0.0
2018-Jun-14 11:57N 44°18' E 009°14'0 0.0
2018-Jun-14 11:30N 44°18' E 009°14'0 0.0
2018-Jun-14 11:00N 44°18' E 009°14'0 0.0
2018-Jun-14 10:30N 44°18' E 009°14'0 0.0
2018-Jun-14 10:00N 44°18' E 009°14'0 0.0
2018-Jun-14 09:30N 44°18' E 009°14'0 0.0
2018-Jun-14 09:00N 44°18' E 009°14'0 0.0
2018-Jun-14 08:27N 44°18' E 009°14'0 0.0
2018-Jun-14 08:00N 44°18' E 009°14'0 0.0
2018-Jun-14 07:24N 44°18' E 009°14'0 0.0
2018-Jun-14 06:57N 44°18' E 009°14'0 0.0
2018-Jun-14 06:29N 44°18' E 009°14'1 2.0
2018-Jun-14 05:57N 44°18' E 009°15'4 9.6
2018-Jun-14 05:30N 44°13' E 009°16'611.5
2018-Jun-14 05:00N 44°08' E 009°16'611.2
2018-Jun-14 04:30N 44°02' E 009°15'611.2
2018-Jun-14 04:00N 43°57' E 009°13'611.5
2018-Jun-14 03:30N 43°51' E 009°12'611.8
2018-Jun-14 03:00N 43°45' E 009°10'611.9
2018-Jun-14 02:30N 43°39' E 009°08'612.0
2018-Jun-14 02:00N 43°34' E 009°06'611.7
2018-Jun-14 01:30N 43°28' E 009°04'611.6
2018-Jun-14 01:00N 43°22' E 009°03'611.9
2018-Jun-14 00:30N 43°16' E 009°01'612.1
2018-Jun-14 00:00N 43°10' E 008°60'22 1.0
2018-Jun-13 02:44N 42°56' E 008°36'40 7.5
2018-Jun-12 21:28N 43°19' E 007°51'4 9.5
2018-Jun-12 21:00N 43°19' E 007°45'710.1
2018-Jun-12 20:17N 43°19' E 007°35'310.1
2018-Jun-12 19:59N 43°20' E 007°31'5 9.8
2018-Jun-12 19:30N 43°20' E 007°24'5 9.9
2018-Jun-12 19:00N 43°20' E 007°18'5 9.4
2018-Jun-12 18:30N 43°22' E 007°11'510.7
2018-Jun-12 18:00N 43°21' E 007°04'  
Track history (hours):
 
Tides and Currents Weather Stations Pressure Air Temp Water Temp Dewpoint Dewpoint Depression Visibility Wind Speed Wind Dir Waves Ship Positions

Club Med II

Operator: V.Ships Leisure S.A.M

Last reported at 2018-Jun-22 05:17 UTC. Time now 2018-Jun-22 09:05 UTC.
Position N 43°24' E 006°58'.

Length 187 m; draft 5.3 m.

Type: Ship. MMSI: 227194000.

Date/timePositionNaut miles runAvg speedWind from/ knotsBaromVisibWave heightAir tempDewpointWater temp
2018-Jun-22 05:17N 43°24' E 006°58'412.3
2018-Jun-22 05:00N 43°26' E 007°02'612.6
2018-Jun-22 04:30N 43°29' E 007°10'612.6
2018-Jun-22 04:00N 43°32' E 007°17'712.7
2018-Jun-22 03:28N 43°35' E 007°26'3714.1
2018-Jun-22 00:50N 43°51' E 008°12'614.0
2018-Jun-22 00:24N 43°54' E 008°19'613.6
2018-Jun-21 23:59N 43°57' E 008°25'713.6
2018-Jun-21 23:30N 44°00' E 008°34'713.6
2018-Jun-21 23:00N 44°03' E 008°42'713.6
2018-Jun-21 22:30N 44°06' E 008°50'714.0
2018-Jun-21 22:00N 44°10' E 008°59'714.1
2018-Jun-21 21:30N 44°13' E 009°08'713.3
2018-Jun-21 21:00N 44°16' E 009°16'2 4.4
2018-Jun-21 20:30N 44°18' E 009°14'0 0.0
2018-Jun-21 19:59N 44°18' E 009°14'0 0.0
2018-Jun-21 19:23N 44°18' E 009°14'0 0.0
2018-Jun-21 18:53N 44°18' E 009°14'0 0.0
2018-Jun-21 18:29N 44°18' E 009°14'0 0.0
2018-Jun-21 17:59N 44°18' E 009°14'0 0.0
2018-Jun-21 17:23N 44°18' E 009°14'0 0.0
2018-Jun-21 16:59N 44°18' E 009°14'0 0.0
2018-Jun-21 16:26N 44°18' E 009°14'0 0.0
2018-Jun-21 15:35N 44°18' E 009°14'0 0.1
2018-Jun-21 15:29N 44°18' E 009°14'0 0.0
2018-Jun-21 14:59N 44°18' E 009°14'0 0.0
2018-Jun-21 14:29N 44°18' E 009°14'0 0.0
2018-Jun-21 13:56N 44°18' E 009°14'0 0.0
2018-Jun-21 13:29N 44°18' E 009°14'0 0.0
2018-Jun-21 12:59N 44°18' E 009°14'0 0.0
2018-Jun-21 12:29N 44°18' E 009°14'0 0.0
2018-Jun-21 11:59N 44°18' E 009°14'0 0.0
2018-Jun-21 11:29N 44°18' E 009°14'0 0.0
2018-Jun-21 10:53N 44°18' E 009°14'0 0.0
2018-Jun-21 10:23N 44°18' E 009°14'0 0.0
2018-Jun-21 09:59N 44°18' E 009°14'0 0.0
2018-Jun-21 09:29N 44°18' E 009°14'0 0.0
2018-Jun-21 08:59N 44°18' E 009°14'0 0.0
2018-Jun-21 08:29N 44°18' E 009°14'0 0.1
2018-Jun-21 07:56N 44°18' E 009°14'0 0.0
2018-Jun-21 07:11N 44°18' E 009°14'0 0.0
2018-Jun-21 06:48N 44°18' E 009°14'0 0.0
2018-Jun-21 06:30N 44°18' E 009°14'0 0.0
2018-Jun-21 06:01N 44°18' E 009°14'0 0.2
2018-Jun-21 05:30N 44°18' E 009°14'4 7.4
2018-Jun-21 05:00N 44°15' E 009°17'4 8.3
2018-Jun-21 04:30N 44°11' E 009°16'4 8.4
2018-Jun-21 04:01N 44°07' E 009°16'4 8.3
2018-Jun-21 03:31N 44°03' E 009°15'4 7.9
2018-Jun-21 03:01N 43°59' E 009°14'4 7.8
2018-Jun-21 02:30N 43°55' E 009°13'4 8.0
2018-Jun-21 02:00N 43°51' E 009°12'5 9.1
2018-Jun-21 01:30N 43°46' E 009°11'5 9.4
2018-Jun-21 01:01N 43°42' E 009°10'5 9.6
2018-Jun-21 00:31N 43°37' E 009°08'5 9.6
2018-Jun-21 00:01N 43°33' E 009°07'5 9.6
2018-Jun-20 23:31N 43°28' E 009°05'5 9.6
2018-Jun-20 23:01N 43°23' E 009°03'5 9.5
2018-Jun-20 22:31N 43°19' E 009°01'5 9.3
2018-Jun-20 22:00N 43°14' E 008°59'5 9.0
2018-Jun-20 21:29N 43°10' E 008°58'37 4.4
2018-Jun-20 13:12N 42°34' E 008°46'0 0.0
2018-Jun-20 12:39N 42°34' E 008°46'0 0.0
2018-Jun-20 12:15N 42°34' E 008°46'0 0.0
2018-Jun-20 12:00N 42°34' E 008°46'0 0.0
2018-Jun-20 09:42N 42°34' E 008°46'0 0.0
2018-Jun-20 09:09N 42°34' E 008°46'0 0.1
2018-Jun-20 09:00N 42°34' E 008°46'0 0.0
2018-Jun-20 08:30N 42°34' E 008°46'0 0.0
2018-Jun-20 07:51N 42°34' E 008°46'0 0.0
2018-Jun-20 06:45N 42°34' E 008°46'0 0.0
2018-Jun-20 06:30N 42°34' E 008°46'0 0.1
2018-Jun-20 06:00N 42°34' E 008°46'1 1.4
2018-Jun-20 05:30N 42°35' E 008°46'3 6.6
2018-Jun-20 05:00N 42°37' E 008°43'4 7.6
2018-Jun-20 04:26N 42°40' E 008°38'3 8.2
2018-Jun-20 04:00N 42°42' E 008°34'9 6.7
2018-Jun-20 02:38N 42°49' E 008°26'1 6.9
2018-Jun-20 02:30N 42°49' E 008°25'4 7.2
2018-Jun-20 01:59N 42°52' E 008°22'6 8.1
2018-Jun-20 01:13N 42°57' E 008°16'2 8.3
2018-Jun-20 01:00N 42°58' E 008°14'4 8.6
2018-Jun-20 00:30N 43°01' E 008°10'6 8.0
2018-Jun-19 23:42N 43°06' E 008°04'2 8.1
2018-Jun-19 23:30N 43°07' E 008°02'16 8.2
2018-Jun-19 21:37N 43°18' E 007°48'6 8.7
2018-Jun-19 20:57N 43°22' E 007°42'4 8.6
2018-Jun-19 20:27N 43°25' E 007°37'4 8.4
2018-Jun-19 19:58N 43°28' E 007°33'4 8.1
2018-Jun-19 19:29N 43°30' E 007°30'4 8.2
2018-Jun-19 18:57N 43°34' E 007°26'4 8.4
2018-Jun-19 18:27N 43°37' E 007°22'4 8.2
2018-Jun-19 18:00N 43°39' E 007°18'2 0.1
2018-Jun-19 04:24N 43°40' E 007°17'4 9.4
2018-Jun-19 04:00N 43°37' E 007°14'4 8.6
2018-Jun-19 03:29N 43°33' E 007°11'4 8.7
2018-Jun-19 03:00N 43°30' E 007°08'5 9.5
2018-Jun-19 02:30N 43°26' E 007°05'5 9.6
2018-Jun-19 02:00N 43°21' E 007°01'5 9.5
2018-Jun-19 01:27N 43°17' E 006°58'37 2.6
2018-Jun-18 11:08N 43°01' E 006°12'0 1.2
2018-Jun-18 11:01N 43°01' E 006°12'18311.9
2018-Jun-17 19:42N 41°25' E 002°42'413.9
2018-Jun-17 19:26N 41°24' E 002°37'614.2
2018-Jun-17 19:00N 41°22' E 002°29'714.6
2018-Jun-17 18:29N 41°21' E 002°19'612.7
2018-Jun-17 18:00N 41°21' E 002°11'2 2.1
2018-Jun-17 17:14N 41°22' E 002°11'0 0.0
2018-Jun-17 16:44N 41°22' E 002°11'0 0.0
2018-Jun-17 16:20N 41°22' E 002°11'0 0.0
2018-Jun-17 13:20N 41°22' E 002°11'0 0.0
2018-Jun-17 12:56N 41°22' E 002°11'0 0.0
2018-Jun-17 12:26N 41°22' E 002°11'0 0.0
2018-Jun-17 11:56N 41°22' E 002°11'0 0.0
2018-Jun-17 11:26N 41°22' E 002°11'0 0.0
2018-Jun-17 10:50N 41°22' E 002°11'0 0.0
2018-Jun-17 10:20N 41°22' E 002°11'0 0.0
2018-Jun-17 09:56N 41°22' E 002°11'0 0.0
2018-Jun-17 09:25N 41°22' E 002°11'0 0.6
2018-Jun-17 09:00N 41°22' E 002°11'3 6.2
2018-Jun-17 08:30N 41°20' E 002°14'5 9.3
2018-Jun-17 08:00N 41°16' E 002°18'5 9.3
2018-Jun-17 07:29N 41°13' E 002°22'50 9.2
2018-Jun-17 02:01N 40°35' E 003°06'2 9.6
2018-Jun-17 01:47N 40°33' E 003°08'6 9.7
2018-Jun-17 01:08N 40°28' E 003°13'410.1
2018-Jun-17 00:45N 40°25' E 003°16'198 6.6
2018-Jun-15 18:43N 42°51' E 006°14'1613.2
2018-Jun-15 17:32N 42°55' E 006°35'114.4
2018-Jun-15 17:29N 42°55' E 006°35'714.3
2018-Jun-15 17:00N 43°00' E 006°42'714.1
2018-Jun-15 16:30N 43°06' E 006°48'714.4
2018-Jun-15 16:01N 43°11' E 006°54'714.1
2018-Jun-15 15:30N 43°17' E 007°00'713.9
2018-Jun-15 15:00N 43°22' E 007°06'714.0
2018-Jun-15 14:30N 43°28' E 007°12'713.8
2018-Jun-15 14:00N 43°34' E 007°17'713.9
2018-Jun-15 13:31N 43°40' E 007°17'1 0.1
2018-Jun-15 05:07N 43°42' E 007°17'0 0.0
2018-Jun-15 05:01N 43°42' E 007°17'0 0.7
2018-Jun-15 04:29N 43°41' E 007°17'6 8.1
2018-Jun-15 03:47N 43°40' E 007°25'410.7
2018-Jun-15 03:27N 43°40' E 007°30'1912.0
2018-Jun-15 01:53N 43°40' E 007°56'512.5
2018-Jun-15 01:30N 43°40' E 008°02'611.9
2018-Jun-15 01:01N 43°40' E 008°10'612.5
2018-Jun-15 00:31N 43°44' E 008°17'612.4
2018-Jun-15 00:01N 43°48' E 008°24'612.5
2018-Jun-14 23:31N 43°51' E 008°31'612.4
2018-Jun-14 23:01N 43°55' E 008°38'612.5
2018-Jun-14 22:30N 43°59' E 008°45'612.7
2018-Jun-14 22:00N 44°03' E 008°52'612.7
2018-Jun-14 21:31N 44°06' E 008°59'612.7
2018-Jun-14 21:01N 44°10' E 009°06'612.5
2018-Jun-14 20:31N 44°14' E 009°13'4 7.7
2018-Jun-14 20:01N 44°18' E 009°14'0 0.1
2018-Jun-14 19:24N 44°18' E 009°14'0 0.0
2018-Jun-14 19:00N 44°18' E 009°14'0 0.0
2018-Jun-14 18:30N 44°18' E 009°14'0 0.0
2018-Jun-14 18:00N 44°18' E 009°14'0 0.0
2018-Jun-14 17:30N 44°18' E 009°14'0 0.0
2018-Jun-14 17:00N 44°18' E 009°14'0 0.0
2018-Jun-14 16:30N 44°18' E 009°14'0 0.0
2018-Jun-14 16:00N 44°18' E 009°14'0 0.0
2018-Jun-14 15:30N 44°18' E 009°14'0 0.0
2018-Jun-14 14:57N 44°18' E 009°14'0 0.0
2018-Jun-14 14:30N 44°18' E 009°14'0 0.0
2018-Jun-14 14:00N 44°18' E 009°14'0 0.0
2018-Jun-14 13:30N 44°18' E 009°14'0 0.0
2018-Jun-14 13:00N 44°18' E 009°14'0 0.0
2018-Jun-14 12:30N 44°18' E 009°14'0 0.0
2018-Jun-14 11:57N 44°18' E 009°14'0 0.0
2018-Jun-14 11:30N 44°18' E 009°14'0 0.0
2018-Jun-14 11:00N 44°18' E 009°14'0 0.0
2018-Jun-14 10:30N 44°18' E 009°14'0 0.0
2018-Jun-14 10:00N 44°18' E 009°14'0 0.0
2018-Jun-14 09:30N 44°18' E 009°14'0 0.0
2018-Jun-14 09:00N 44°18' E 009°14'0 0.0
2018-Jun-14 08:27N 44°18' E 009°14'0 0.0
2018-Jun-14 08:00N 44°18' E 009°14'0 0.0
2018-Jun-14 07:24N 44°18' E 009°14'0 0.0
2018-Jun-14 06:57N 44°18' E 009°14'0 0.0
2018-Jun-14 06:29N 44°18' E 009°14'1 2.0
2018-Jun-14 05:57N 44°18' E 009°15'4 9.6
2018-Jun-14 05:30N 44°13' E 009°16'611.5
2018-Jun-14 05:00N 44°08' E 009°16'611.2
2018-Jun-14 04:30N 44°02' E 009°15'611.2
2018-Jun-14 04:00N 43°57' E 009°13'611.5
2018-Jun-14 03:30N 43°51' E 009°12'611.8
2018-Jun-14 03:00N 43°45' E 009°10'611.9
2018-Jun-14 02:30N 43°39' E 009°08'612.0
2018-Jun-14 02:00N 43°34' E 009°06'611.7
2018-Jun-14 01:30N 43°28' E 009°04'611.6
2018-Jun-14 01:00N 43°22' E 009°03'611.9
2018-Jun-14 00:30N 43°16' E 009°01'612.1
2018-Jun-14 00:00N 43°10' E 008°60'22 1.0
2018-Jun-13 02:44N 42°56' E 008°36'40 7.5
2018-Jun-12 21:28N 43°19' E 007°51'4 9.5
2018-Jun-12 21:00N 43°19' E 007°45'710.1
2018-Jun-12 20:17N 43°19' E 007°35'310.1
2018-Jun-12 19:59N 43°20' E 007°31'5 9.8
2018-Jun-12 19:30N 43°20' E 007°24'5 9.9
2018-Jun-12 19:00N 43°20' E 007°18'5 9.4
2018-Jun-12 18:30N 43°22' E 007°11'510.7
2018-Jun-12 18:00N 43°21' E 007°04'  

Dump ship's entire track history